Terminal Aerodrome Forecast
Issued by NWS Denver/Boulder, CO

Home | Current Version | Previous Version | Text Only | Print | Product List | Glossary On
Versions: 1 2 3 4 5 6 7 8 9 10 11 12 13 14 15 16 17 18 19 20 21 22 23 24 25 26 27 28 29 30 31 32 33 34 35 36 37 38 39 40 41 42 43 44 45 46 47 48 49 50
000
FTUS45 KBOU 251128
TAFDEN
TAF
KDEN 251128Z 2512/2618 21012KT P6SM FEW200
     FM251400 24008KT P6SM FEW200
     FM251800 05006KT P6SM FEW080 SCT140
     FM252100 33012KT P6SM VCTS SCT080CB BKN140
      TEMPO 2521/2601 VRB20G30KT -TSRA BKN060CB
     FM260100 10012KT P6SM SCT060 BKN100
     FM260900 11010KT 1/2SM -DZ FG SCT002 OVC006
      TEMPO 2611/2615 1/4SM -DZ FG VV003
     FM261600 11010KT 2SM -DZ BR SCT005 OVC010=

USA.gov is the U.S. government's official web portal to all federal, state and local government web resources and services.